sensor_id;sensor_type;location;lat;lon;timestamp;pressure;altitude;pressure_sealevel;temperature;humidity
65754;BME280;52488;47.502;18.940;2022-08-25T00:00:00;98222.25;;;19.77;90.38
65754;BME280;52488;47.502;18.940;2022-08-25T00:01:09;98220.09;;;19.75;90.51
65754;BME280;52488;47.502;18.940;2022-08-25T00:02:12;98219.53;;;19.79;90.62
65754;BME280;52488;47.502;18.940;2022-08-25T00:03:18;98214.66;;;19.80;90.68
65754;BME280;52488;47.502;18.940;2022-08-25T00:04:24;98223.09;;;19.82;90.44
65754;BME280;52488;47.502;18.940;2022-08-25T00:05:28;98214.88;;;19.86;90.40
65754;BME280;52488;47.502;18.940;2022-08-25T00:06:35;98214.88;;;19.86;90.13
65754;BME280;52488;47.502;18.940;2022-08-25T00:07:38;98221.81;;;19.85;90.01
65754;BME280;52488;47.502;18.940;2022-08-25T00:08:42;98219.09;;;19.87;90.28
65754;BME280;52488;47.502;18.940;2022-08-25T00:09:45;98216.19;;;19.83;90.07
65754;BME280;52488;47.502;18.940;2022-08-25T00:10:48;98215.44;;;19.82;90.05
65754;BME280;52488;47.502;18.940;2022-08-25T00:12:05;98221.47;;;19.74;90.41
65754;BME280;52488;47.502;18.940;2022-08-25T00:13:08;98225.59;;;19.73;90.61
65754;BME280;52488;47.502;18.940;2022-08-25T00:14:15;98220.09;;;19.75;90.51
65754;BME280;52488;47.502;18.940;2022-08-25T00:15:20;98220.75;;;19.74;90.39
65754;BME280;52488;47.502;18.940;2022-08-25T00:16:24;98215.94;;;19.76;90.38
65754;BME280;52488;47.502;18.940;2022-08-25T00:17:28;98221.41;;;19.72;90.35
65754;BME280;52488;47.502;18.940;2022-08-25T00:18:31;98215.63;;;19.66;90.72
65754;BME280;52488;47.502;18.940;2022-08-25T00:19:38;98216.31;;;19.67;90.67
65754;BME280;52488;47.502;18.940;2022-08-25T00:20:41;98222.94;;;19.58;91.41
65754;BME280;52488;47.502;18.940;2022-08-25T00:21:50;98215.22;;;19.56;91.85
65754;BME280;52488;47.502;18.940;2022-08-25T00:22:53;98222.16;;;19.55;91.75
65754;BME280;52488;47.502;18.940;2022-08-25T00:23:58;98215.28;;;19.58;91.56
65754;BME280;52488;47.502;18.940;2022-08-25T00:25:02;98221.50;;;19.57;91.73
65754;BME280;52488;47.502;18.940;2022-08-25T00:26:07;98213.81;;;19.55;91.74
65754;BME280;52488;47.502;18.940;2022-08-25T00:27:11;98221.47;;;19.55;91.93
65754;BME280;52488;47.502;18.940;2022-08-25T00:28:14;98213.88;;;19.57;91.85
65754;BME280;52488;47.502;18.940;2022-08-25T00:29:19;98210.53;;;19.61;91.74
65754;BME280;52488;47.502;18.940;2022-08-25T00:30:22;98215.41;;;19.60;91.71
65754;BME280;52488;47.502;18.940;2022-08-25T00:31:25;98214.75;;;19.62;91.56
65754;BME280;52488;47.502;18.940;2022-08-25T00:32:40;98211.16;;;19.59;91.79
65754;BME280;52488;47.502;18.940;2022-08-25T00:33:49;98208.28;;;19.57;91.96
65754;BME280;52488;47.502;18.940;2022-08-25T00:34:58;98208.09;;;19.51;92.30
65754;BME280;52488;47.502;18.940;2022-08-25T00:36:02;98212.44;;;19.56;91.98
65754;BME280;52488;47.502;18.940;2022-08-25T00:37:06;98217.59;;;19.44;92.50
65754;BME280;52488;47.502;18.940;2022-08-25T00:38:11;98200.94;;;19.46;92.40
65754;BME280;52488;47.502;18.940;2022-08-25T00:39:14;98209.09;;;19.40;92.82
65754;BME280;52488;47.502;18.940;2022-08-25T00:40:17;98215.00;;;19.30;93.60
65754;BME280;52488;47.502;18.940;2022-08-25T00:41:22;98205.88;;;19.28;93.57
65754;BME280;52488;47.502;18.940;2022-08-25T00:42:25;98210.06;;;19.29;93.85
65754;BME280;52488;47.502;18.940;2022-08-25T00:44:43;98203.28;;;19.34;93.77
65754;BME280;52488;47.502;18.940;2022-08-25T00:45:46;98212.94;;;19.31;93.93
65754;BME280;52488;47.502;18.940;2022-08-25T00:46:56;98214.34;;;19.32;93.77
65754;BME280;52488;47.502;18.940;2022-08-25T00:48:00;98209.97;;;19.26;94.45
65754;BME280;52488;47.502;18.940;2022-08-25T00:49:10;98218.50;;;19.31;94.02
65754;BME280;52488;47.502;18.940;2022-08-25T00:50:28;98208.06;;;19.31;94.10
65754;BME280;52488;47.502;18.940;2022-08-25T00:51:41;98210.72;;;19.27;94.55
65754;BME280;52488;47.502;18.940;2022-08-25T00:52:48;98210.78;;;19.29;94.31
65754;BME280;52488;47.502;18.940;2022-08-25T00:53:53;98210.41;;;19.19;94.79
65754;BME280;52488;47.502;18.940;2022-08-25T00:55:10;98209.06;;;19.20;94.99
65754;BME280;52488;47.502;18.940;2022-08-25T00:56:15;98208.84;;;19.14;95.08
65754;BME280;52488;47.502;18.940;2022-08-25T00:57:26;98219.56;;;19.21;94.91
65754;BME280;52488;47.502;18.940;2022-08-25T00:58:37;98208.78;;;19.12;95.38
65754;BME280;52488;47.502;18.940;2022-08-25T00:59:43;98213.31;;;19.03;95.81
65754;BME280;52488;47.502;18.940;2022-08-25T01:00:48;98212.44;;;18.98;96.04
65754;BME280;52488;47.502;18.940;2022-08-25T01:01:57;98205.22;;;18.91;96.59
65754;BME280;52488;47.502;18.940;2022-08-25T01:03:00;98204.66;;;18.95;96.67
65754;BME280;52488;47.502;18.940;2022-08-25T01:04:04;98207.69;;;19.01;96.28
65754;BME280;52488;47.502;18.940;2022-08-25T01:05:07;98207.63;;;18.99;96.00
65754;BME280;52488;47.502;18.940;2022-08-25T01:06:10;98213.41;;;19.05;95.74
65754;BME280;52488;47.502;18.940;2022-08-25T01:07:15;98212.28;;;19.12;95.22
65754;BME280;52488;47.502;18.940;2022-08-25T01:08:23;98219.41;;;19.17;94.62
65754;BME280;52488;47.502;18.940;2022-08-25T01:09:31;98213.12;;;19.17;94.64
65754;BME280;52488;47.502;18.940;2022-08-25T01:10:36;98209.63;;;19.16;94.45
65754;BME280;52488;47.502;18.940;2022-08-25T01:11:41;98210.13;;;19.11;94.82
65754;BME280;52488;47.502;18.940;2022-08-25T01:12:46;98211.66;;;18.96;95.69
65754;BME280;52488;47.502;18.940;2022-08-25T01:13:54;98216.47;;;18.76;97.47
65754;BME280;52488;47.502;18.940;2022-08-25T01:15:00;98214.59;;;18.64;98.01
65754;BME280;52488;47.502;18.940;2022-08-25T01:16:03;98211.44;;;18.54;98.78
65754;BME280;52488;47.502;18.940;2022-08-25T01:17:07;98209.78;;;18.47;99.45
65754;BME280;52488;47.502;18.940;2022-08-25T01:18:11;98207.09;;;18.49;99.04
65754;BME280;52488;47.502;18.940;2022-08-25T01:19:14;98209.34;;;18.37;99.87
65754;BME280;52488;47.502;18.940;2022-08-25T01:20:21;98208.66;;;18.36;100.00
65754;BME280;52488;47.502;18.940;2022-08-25T01:21:41;98206.28;;;18.29;100.00
65754;BME280;52488;47.502;18.940;2022-08-25T01:22:45;98206.91;;;18.27;100.00
65754;BME280;52488;47.502;18.940;2022-08-25T01:23:57;98204.38;;;18.33;100.00
65754;BME280;52488;47.502;18.940;2022-08-25T01:25:06;98210.31;;;18.26;100.00
65754;BME280;52488;47.502;18.940;2022-08-25T01:26:26;98214.53;;;18.27;100.00
65754;BME280;52488;47.502;18.940;2022-08-25T01:27:32;98206.09;;;18.25;100.00
65754;BME280;52488;47.502;18.940;2022-08-25T01:28:35;98204.44;;;18.17;100.00
65754;BME280;52488;47.502;18.940;2022-08-25T01:29:39;98205.69;;;18.14;100.00
65754;BME280;52488;47.502;18.940;2022-08-25T01:30:42;98208.63;;;18.18;100.00
65754;BME280;52488;47.502;18.940;2022-08-25T01:31:49;98200.47;;;18.23;100.00
65754;BME280;52488;47.502;18.940;2022-08-25T01:32:53;98204.44;;;18.17;100.00
65754;BME280;52488;47.502;18.940;2022-08-25T01:33:56;98207.28;;;18.19;100.00
65754;BME280;52488;47.502;18.940;2022-08-25T01:34:59;98194.72;;;18.18;100.00
65754;BME280;52488;47.502;18.940;2022-08-25T01:36:03;98201.25;;;18.25;100.00
65754;BME280;52488;47.502;18.940;2022-08-25T01:37:08;98191.09;;;18.32;100.00
65754;BME280;52488;47.502;18.940;2022-08-25T01:38:15;98201.50;;;18.31;100.00
65754;BME280;52488;47.502;18.940;2022-08-25T01:39:18;98202.19;;;18.32;100.00
65754;BME280;52488;47.502;18.940;2022-08-25T01:40:21;98196.66;;;18.50;100.00
65754;BME280;52488;47.502;18.940;2022-08-25T01:41:35;98204.44;;;18.53;100.00
65754;BME280;52488;47.502;18.940;2022-08-25T01:44:13;98196.75;;;18.34;100.00
65754;BME280;52488;47.502;18.940;2022-08-25T01:45:18;98190.00;;;18.39;100.00
65754;BME280;52488;47.502;18.940;2022-08-25T01:46:22;98202.37;;;18.36;100.00
65754;BME280;52488;47.502;18.940;2022-08-25T01:47:25;98196.16;;;18.37;100.00
65754;BME280;52488;47.502;18.940;2022-08-25T01:48:28;98191.00;;;18.47;100.00
65754;BME280;52488;47.502;18.940;2022-08-25T01:49:31;98196.25;;;18.57;100.00
65754;BME280;52488;47.502;18.940;2022-08-25T01:50:34;98199.59;;;18.54;100.00
65754;BME280;52488;47.502;18.940;2022-08-25T01:51:42;98190.69;;;18.57;99.92
65754;BME280;52488;47.502;18.940;2022-08-25T01:52:54;98194.66;;;18.52;100.00
65754;BME280;52488;47.502;18.940;2022-08-25T01:53:58;98202.87;;;18.66;100.00
65754;BME280;52488;47.502;18.940;2022-08-25T01:55:01;98203.66;;;18.68;100.00
65754;BME280;52488;47.502;18.940;2022-08-25T01:56:12;98197.56;;;18.72;100.00
65754;BME280;52488;47.502;18.940;2022-08-25T01:57:16;98197.63;;;18.74;100.00
65754;BME280;52488;47.502;18.940;2022-08-25T01:58:21;98193.41;;;18.73;100.00
65754;BME280;52488;47.502;18.940;2022-08-25T01:59:25;98208.09;;;18.76;100.00
65754;BME280;52488;47.502;18.940;2022-08-25T02:00:28;98201.91;;;18.77;100.00
65754;BME280;52488;47.502;18.940;2022-08-25T02:01:32;98202.16;;;18.83;100.00
65754;BME280;52488;47.502;18.940;2022-08-25T02:02:35;98206.28;;;18.82;100.00
65754;BME280;52488;47.502;18.940;2022-08-25T02:03:46;98205.00;;;18.85;100.00
65754;BME280;52488;47.502;18.940;2022-08-25T02:04:49;98201.56;;;18.87;100.00
65754;BME280;52488;47.502;18.940;2022-08-25T02:05:53;98207.12;;;18.87;100.00
65754;BME280;52488;47.502;18.940;2022-08-25T02:06:59;98198.94;;;18.91;100.00
65754;BME280;52488;47.502;18.940;2022-08-25T02:08:02;98204.03;;;18.96;100.00
65754;BME280;52488;47.502;18.940;2022-08-25T02:09:09;98201.66;;;18.89;100.00
65754;BME280;52488;47.502;18.940;2022-08-25T02:10:12;98200.47;;;18.94;100.00
65754;BME280;52488;47.502;18.940;2022-08-25T02:11:15;98200.78;;;18.84;100.00
65754;BME280;52488;47.502;18.940;2022-08-25T02:12:18;98198.88;;;18.89;100.00
65754;BME280;52488;47.502;18.940;2022-08-25T02:13:21;98197.53;;;18.90;99.97
65754;BME280;52488;47.502;18.940;2022-08-25T02:14:32;98194.81;;;18.92;100.00
65754;BME280;52488;47.502;18.940;2022-08-25T02:15:42;98196.66;;;18.85;100.00
65754;BME280;52488;47.502;18.940;2022-08-25T02:16:48;98193.31;;;18.89;99.78
65754;BME280;52488;47.502;18.940;2022-08-25T02:17:52;98188.84;;;18.82;99.84
65754;BME280;52488;47.502;18.940;2022-08-25T02:18:56;98187.37;;;18.79;99.88
65754;BME280;52488;47.502;18.940;2022-08-25T02:20:00;98193.22;;;18.87;99.77
65754;BME280;52488;47.502;18.940;2022-08-25T02:21:03;98184.34;;;18.72;100.00
65754;BME280;52488;47.502;18.940;2022-08-25T02:22:06;98183.72;;;18.74;100.00
65754;BME280;52488;47.502;18.940;2022-08-25T02:23:09;98191.56;;;18.80;100.00
65754;BME280;52488;47.502;18.940;2022-08-25T02:24:17;98192.94;;;18.79;100.00
65754;BME280;52488;47.502;18.940;2022-08-25T02:25:26;98190.06;;;18.77;100.00
65754;BME280;52488;47.502;18.940;2022-08-25T02:26:30;98194.78;;;18.72;100.00
65754;BME280;52488;47.502;18.940;2022-08-25T02:27:32;98190.16;;;18.79;100.00
65754;BME280;52488;47.502;18.940;2022-08-25T02:28:39;98188.56;;;18.73;99.43
65754;BME280;52488;47.502;18.940;2022-08-25T02:29:42;98188.22;;;18.65;100.00
65754;BME280;52488;47.502;18.940;2022-08-25T02:30:45;98192.44;;;18.66;99.72
65754;BME280;52488;47.502;18.940;2022-08-25T02:32:00;98185.63;;;18.69;100.00
65754;BME280;52488;47.502;18.940;2022-08-25T02:33:03;98188.13;;;18.63;100.00
65754;BME280;52488;47.502;18.940;2022-08-25T02:34:07;98187.03;;;18.70;99.97
65754;BME280;52488;47.502;18.940;2022-08-25T02:35:10;98191.28;;;18.71;99.34
65754;BME280;52488;47.502;18.940;2022-08-25T02:36:14;98191.34;;;18.73;99.30
65754;BME280;52488;47.502;18.940;2022-08-25T02:37:17;98188.84;;;18.82;99.07
65754;BME280;52488;47.502;18.940;2022-08-25T02:38:22;98188.13;;;18.81;99.16
65754;BME280;52488;47.502;18.940;2022-08-25T02:39:25;98191.09;;;18.85;98.80
65754;BME280;52488;47.502;18.940;2022-08-25T02:40:28;98187.47;;;19.01;97.91
65754;BME280;52488;47.502;18.940;2022-08-25T02:41:31;98187.87;;;18.93;98.69
65754;BME280;52488;47.502;18.940;2022-08-25T02:42:35;98185.84;;;18.93;98.60
65754;BME280;52488;47.502;18.940;2022-08-25T02:43:39;98189.16;;;18.90;99.40
65754;BME280;52488;47.502;18.940;2022-08-25T02:44:43;98185.03;;;18.91;99.16
65754;BME280;52488;47.502;18.940;2022-08-25T02:45:45;98186.19;;;19.04;98.51
65754;BME280;52488;47.502;18.940;2022-08-25T02:46:48;98194.53;;;19.04;98.55
65754;BME280;52488;47.502;18.940;2022-08-25T02:47:51;98196.75;;;19.07;98.39
65754;BME280;52488;47.502;18.940;2022-08-25T02:48:55;98187.16;;;19.10;98.46
65754;BME280;52488;47.502;18.940;2022-08-25T02:49:58;98194.13;;;19.11;98.36
65754;BME280;52488;47.502;18.940;2022-08-25T02:51:07;98189.13;;;19.08;98.87
65754;BME280;52488;47.502;18.940;2022-08-25T02:52:11;98187.28;;;19.14;98.56
65754;BME280;52488;47.502;18.940;2022-08-25T02:53:14;98180.94;;;19.12;98.57
65754;BME280;52488;47.502;18.940;2022-08-25T02:54:17;98180.22;;;19.11;98.78
65754;BME280;52488;47.502;18.940;2022-08-25T02:55:20;98182.28;;;19.11;98.75
65754;BME280;52488;47.502;18.940;2022-08-25T02:56:24;98178.63;;;19.06;99.17
65754;BME280;52488;47.502;18.940;2022-08-25T02:57:29;98185.34;;;18.99;99.85
65754;BME280;52488;47.502;18.940;2022-08-25T02:58:32;98178.97;;;18.96;99.83
65754;BME280;52488;47.502;18.940;2022-08-25T02:59:36;98185.91;;;18.95;99.73
65754;BME280;52488;47.502;18.940;2022-08-25T03:00:39;98179.94;;;18.85;100.00
65754;BME280;52488;47.502;18.940;2022-08-25T03:01:44;98180.50;;;18.82;100.00
65754;BME280;52488;47.502;18.940;2022-08-25T03:02:47;98183.94;;;18.80;100.00
65754;BME280;52488;47.502;18.940;2022-08-25T03:03:50;98186.31;;;18.88;99.95
65754;BME280;52488;47.502;18.940;2022-08-25T03:04:56;98179.00;;;18.79;99.72
65754;BME280;52488;47.502;18.940;2022-08-25T03:06:02;98174.56;;;18.71;100.00
65754;BME280;52488;47.502;18.940;2022-08-25T03:07:05;98184.19;;;18.68;100.00
65754;BME280;52488;47.502;18.940;2022-08-25T03:08:09;98180.22;;;18.73;99.71
65754;BME280;52488;47.502;18.940;2022-08-25T03:09:12;98184.88;;;18.87;99.26
65754;BME280;52488;47.502;18.940;2022-08-25T03:10:16;98175.09;;;18.86;98.53
65754;BME280;52488;47.502;18.940;2022-08-25T03:11:21;98173.59;;;18.83;98.24
65754;BME280;52488;47.502;18.940;2022-08-25T03:12:24;98178.47;;;18.82;98.39
65754;BME280;52488;47.502;18.940;2022-08-25T03:13:31;98185.78;;;18.73;98.67
65754;BME280;52488;47.502;18.940;2022-08-25T03:14:34;98177.81;;;18.84;98.99
65754;BME280;52488;47.502;18.940;2022-08-25T03:15:37;98175.69;;;18.82;98.83
65754;BME280;52488;47.502;18.940;2022-08-25T03:16:43;98172.97;;;18.84;99.37
65754;BME280;52488;47.502;18.940;2022-08-25T03:17:47;98182.19;;;18.89;99.28
65754;BME280;52488;47.502;18.940;2022-08-25T03:18:53;98178.09;;;18.92;98.83
65754;BME280;52488;47.502;18.940;2022-08-25T03:19:57;98176.12;;;18.94;98.83
65754;BME280;52488;47.502;18.940;2022-08-25T03:21:00;98175.47;;;18.96;98.87
65754;BME280;52488;47.502;18.940;2022-08-25T03:22:09;98178.19;;;18.94;99.00
65754;BME280;52488;47.502;18.940;2022-08-25T03:23:13;98181.31;;;19.04;98.33
65754;BME280;52488;47.502;18.940;2022-08-25T03:24:16;98179.50;;;19.11;97.75
65754;BME280;52488;47.502;18.940;2022-08-25T03:25:19;98179.50;;;19.11;97.64
65754;BME280;52488;47.502;18.940;2022-08-25T03:26:41;98180.28;;;19.13;97.44
65754;BME280;52488;47.502;18.940;2022-08-25T03:27:56;98179.13;;;19.20;97.18
65754;BME280;52488;47.502;18.940;2022-08-25T03:29:00;98173.06;;;19.26;96.66
65754;BME280;52488;47.502;18.940;2022-08-25T03:30:07;98168.22;;;19.26;96.42
65754;BME280;52488;47.502;18.940;2022-08-25T03:31:14;98183.38;;;19.21;96.94
65754;BME280;52488;47.502;18.940;2022-08-25T03:32:17;98173.34;;;19.14;96.88
65754;BME280;52488;47.502;18.940;2022-08-25T03:33:20;98178.22;;;19.14;97.17
65754;BME280;52488;47.502;18.940;2022-08-25T03:34:23;98175.19;;;19.08;97.42
65754;BME280;52488;47.502;18.940;2022-08-25T03:35:26;98173.28;;;19.12;97.03
65754;BME280;52488;47.502;18.940;2022-08-25T03:36:29;98179.06;;;19.18;96.72
65754;BME280;52488;47.502;18.940;2022-08-25T03:37:32;98180.50;;;19.19;96.15
65754;BME280;52488;47.502;18.940;2022-08-25T03:38:35;98177.56;;;19.15;96.00
65754;BME280;52488;47.502;18.940;2022-08-25T03:39:39;98178.22;;;19.14;96.02
65754;BME280;52488;47.502;18.940;2022-08-25T03:40:42;98186.06;;;19.19;95.89
65754;BME280;52488;47.502;18.940;2022-08-25T03:41:45;98183.12;;;19.15;95.81
65754;BME280;52488;47.502;18.940;2022-08-25T03:42:49;98180.09;;;19.27;94.75
65754;BME280;52488;47.502;18.940;2022-08-25T03:43:52;98180.72;;;19.25;94.93
65754;BME280;52488;47.502;18.940;2022-08-25T03:44:55;98170.22;;;19.24;94.96
65754;BME280;52488;47.502;18.940;2022-08-25T03:45:58;98184.50;;;19.14;95.78
65754;BME280;52488;47.502;18.940;2022-08-25T03:47:01;98189.72;;;19.24;94.85
65754;BME280;52488;47.502;18.940;2022-08-25T03:48:04;98181.41;;;19.26;95.20
65754;BME280;52488;47.502;18.940;2022-08-25T03:49:09;98179.94;;;19.23;94.91
65754;BME280;52488;47.502;18.940;2022-08-25T03:50:15;98181.50;;;19.28;94.68
65754;BME280;52488;47.502;18.940;2022-08-25T03:51:30;98180.66;;;19.23;94.82
65754;BME280;52488;47.502;18.940;2022-08-25T03:52:34;98184.09;;;19.22;95.13
65754;BME280;52488;47.502;18.940;2022-08-25T03:53:43;98180.72;;;19.25;94.79
65754;BME280;52488;47.502;18.940;2022-08-25T03:54:46;98185.56;;;19.25;94.95
65754;BME280;52488;47.502;18.940;2022-08-25T03:55:53;98184.91;;;19.26;94.62
65754;BME280;52488;47.502;18.940;2022-08-25T03:56:56;98183.09;;;19.33;94.32
65754;BME280;52488;47.502;18.940;2022-08-25T03:57:59;98179.50;;;19.31;94.13
65754;BME280;52488;47.502;18.940;2022-08-25T03:59:03;98176.22;;;19.36;93.55
65754;BME280;52488;47.502;18.940;2022-08-25T04:00:08;98175.94;;;19.48;92.71
65754;BME280;52488;47.502;18.940;2022-08-25T04:01:11;98174.09;;;19.55;92.82
65754;BME280;52488;47.502;18.940;2022-08-25T04:02:17;98180.94;;;19.51;92.76
65754;BME280;52488;47.502;18.940;2022-08-25T04:03:20;98169.63;;;19.47;92.74
65754;BME280;52488;47.502;18.940;2022-08-25T04:04:23;98180.22;;;19.51;93.14
65754;BME280;52488;47.502;18.940;2022-08-25T04:05:26;98180.56;;;19.41;93.73
65754;BME280;52488;47.502;18.940;2022-08-25T04:06:29;98177.88;;;19.43;93.62
65754;BME280;52488;47.502;18.940;2022-08-25T04:07:32;98180.44;;;19.37;93.89
65754;BME280;52488;47.502;18.940;2022-08-25T04:08:36;98177.66;;;19.57;92.56
65754;BME280;52488;47.502;18.940;2022-08-25T04:09:39;98178.44;;;19.60;92.31
65754;BME280;52488;47.502;18.940;2022-08-25T04:10:42;98174.94;;;19.59;92.06
65754;BME280;52488;47.502;18.940;2022-08-25T04:11:45;98173.34;;;19.54;92.41
65754;BME280;52488;47.502;18.940;2022-08-25T04:12:53;98178.84;;;19.52;92.80
65754;BME280;52488;47.502;18.940;2022-08-25T04:13:58;98177.88;;;19.63;91.98
65754;BME280;52488;47.502;18.940;2022-08-25T04:15:04;98177.59;;;19.55;92.59
65754;BME280;52488;47.502;18.940;2022-08-25T04:16:12;98177.50;;;19.53;92.16
65754;BME280;52488;47.502;18.940;2022-08-25T04:17:16;98180.59;;;19.61;91.81
65754;BME280;52488;47.502;18.940;2022-08-25T04:18:19;98178.69;;;19.66;91.60
65754;BME280;52488;47.502;18.940;2022-08-25T04:19:22;98176.66;;;19.68;91.52
65754;BME280;52488;47.502;18.940;2022-08-25T04:20:25;98187.94;;;19.72;91.56
65754;BME280;52488;47.502;18.940;2022-08-25T04:21:28;98181.66;;;19.72;91.30
65754;BME280;52488;47.502;18.940;2022-08-25T04:22:31;98175.50;;;19.75;90.85
65754;BME280;52488;47.502;18.940;2022-08-25T04:23:40;98185.28;;;19.76;90.57
65754;BME280;52488;47.502;18.940;2022-08-25T04:24:44;98184.72;;;19.80;90.78
65754;BME280;52488;47.502;18.940;2022-08-25T04:25:47;98188.16;;;19.78;91.07
65754;BME280;52488;47.502;18.940;2022-08-25T04:26:50;98181.94;;;19.80;91.27
65754;BME280;52488;47.502;18.940;2022-08-25T04:27:53;98183.84;;;19.75;90.71
65754;BME280;52488;47.502;18.940;2022-08-25T04:28:58;98190.84;;;19.76;91.32
65754;BME280;52488;47.502;18.940;2022-08-25T04:30:03;98186.06;;;19.79;91.32
65754;BME280;52488;47.502;18.940;2022-08-25T04:31:08;98181.88;;;19.78;91.50
65754;BME280;52488;47.502;18.940;2022-08-25T04:32:11;98188.22;;;19.81;91.27
65754;BME280;52488;47.502;18.940;2022-08-25T04:33:15;98186.28;;;19.85;90.43
65754;BME280;52488;47.502;18.940;2022-08-25T04:34:20;98179.94;;;19.83;90.81
65754;BME280;52488;47.502;18.940;2022-08-25T04:35:32;98187.50;;;19.80;90.94
65754;BME280;52488;47.502;18.940;2022-08-25T04:36:36;98181.34;;;19.84;90.80
65754;BME280;52488;47.502;18.940;2022-08-25T04:37:39;98184.28;;;19.88;90.14
65754;BME280;52488;47.502;18.940;2022-08-25T04:38:43;98186.34;;;19.87;90.92
65754;BME280;52488;47.502;18.940;2022-08-25T04:39:46;98182.28;;;19.90;90.65
65754;BME280;52488;47.502;18.940;2022-08-25T04:40:57;98188.03;;;19.96;90.01
65754;BME280;52488;47.502;18.940;2022-08-25T04:42:00;98184.50;;;19.94;90.05
65754;BME280;52488;47.502;18.940;2022-08-25T04:43:03;98179.53;;;19.92;90.27
65754;BME280;52488;47.502;18.940;2022-08-25T04:44:06;98179.53;;;19.92;90.94
65754;BME280;52488;47.502;18.940;2022-08-25T04:45:09;98177.34;;;19.89;90.81
65754;BME280;52488;47.502;18.940;2022-08-25T04:46:22;98183.03;;;19.93;90.82
65754;BME280;52488;47.502;18.940;2022-08-25T04:47:25;98180.34;;;19.95;90.86
65754;BME280;52488;47.502;18.940;2022-08-25T04:48:30;98186.16;;;20.03;90.41
65754;BME280;52488;47.502;18.940;2022-08-25T04:49:34;98185.44;;;20.02;89.91
65754;BME280;52488;47.502;18.940;2022-08-25T04:50:38;98180.66;;;20.05;89.93
65754;BME280;52488;47.502;18.940;2022-08-25T04:51:45;98180.03;;;20.07;90.15
65754;BME280;52488;47.502;18.940;2022-08-25T04:52:48;98182.75;;;20.04;90.72
65754;BME280;52488;47.502;18.940;2022-08-25T04:53:52;98177.22;;;20.07;90.44
65754;BME280;52488;47.502;18.940;2022-08-25T04:54:55;98179.31;;;20.06;90.73
65754;BME280;52488;47.502;18.940;2022-08-25T04:55:59;98182.53;;;19.98;91.15
65754;BME280;52488;47.502;18.940;2022-08-25T04:57:05;98185.03;;;20.10;90.12
65754;BME280;52488;47.502;18.940;2022-08-25T04:58:13;98185.03;;;20.10;90.18
65754;BME280;52488;47.502;18.940;2022-08-25T04:59:18;98183.72;;;20.13;89.71
65754;BME280;52488;47.502;18.940;2022-08-25T05:00:21;98186.69;;;20.19;89.90
65754;BME280;52488;47.502;18.940;2022-08-25T05:01:24;98179.13;;;20.22;89.32
65754;BME280;52488;47.502;18.940;2022-08-25T05:02:27;98183.47;;;20.27;89.52
65754;BME280;52488;47.502;18.940;2022-08-25T05:03:31;98190.38;;;20.26;89.26
65754;BME280;52488;47.502;18.940;2022-08-25T05:04:35;98177.38;;;20.33;88.71
65754;BME280;52488;47.502;18.940;2022-08-25T05:05:42;98181.63;;;20.36;88.99
65754;BME280;52488;47.502;18.940;2022-08-25T05:06:45;98182.22;;;20.32;89.06
65754;BME280;52488;47.502;18.940;2022-08-25T05:07:48;98177.59;;;20.41;89.00
65754;BME280;52488;47.502;18.940;2022-08-25T05:08:51;98180.69;;;20.49;88.45
65754;BME280;52488;47.502;18.940;2022-08-25T05:09:54;98184.03;;;20.45;88.60
65754;BME280;52488;47.502;18.940;2022-08-25T05:10:57;98179.81;;;20.44;88.76
65754;BME280;52488;47.502;18.940;2022-08-25T05:12:09;98184.59;;;20.42;88.62
65754;BME280;52488;47.502;18.940;2022-08-25T05:13:14;98190.34;;;20.46;88.77
65754;BME280;52488;47.502;18.940;2022-08-25T05:14:17;98184.28;;;20.53;88.20
65754;BME280;52488;47.502;18.940;2022-08-25T05:15:27;98184.38;;;20.55;88.19
65754;BME280;52488;47.502;18.940;2022-08-25T05:16:53;98181.09;;;20.63;87.58
65754;BME280;52488;47.502;18.940;2022-08-25T05:18:00;98183.66;;;20.55;88.30
65754;BME280;52488;47.502;18.940;2022-08-25T05:19:03;98178.25;;;20.61;87.44
65754;BME280;52488;47.502;18.940;2022-08-25T05:20:09;98188.91;;;20.67;87.44
65754;BME280;52488;47.502;18.940;2022-08-25T05:21:16;98193.78;;;20.66;87.38
65754;BME280;52488;47.502;18.940;2022-08-25T05:22:19;98185.56;;;20.72;87.40
65754;BME280;52488;47.502;18.940;2022-08-25T05:23:28;98189.22;;;20.77;86.56
65754;BME280;52488;47.502;18.940;2022-08-25T05:24:31;98185.56;;;20.72;87.36
65754;BME280;52488;47.502;18.940;2022-08-25T05:25:34;98178.22;;;20.83;85.85
65754;BME280;52488;47.502;18.940;2022-08-25T05:26:37;98182.44;;;20.84;86.07
65754;BME280;52488;47.502;18.940;2022-08-25T05:27:41;98179.78;;;20.88;85.38
65754;BME280;52488;47.502;18.940;2022-08-25T05:28:47;98188.19;;;20.90;85.58
65754;BME280;52488;47.502;18.940;2022-08-25T05:29:51;98183.97;;;20.89;86.42
65754;BME280;52488;47.502;18.940;2022-08-25T05:30:58;98185.34;;;20.88;86.22
65754;BME280;52488;47.502;18.940;2022-08-25T05:32:02;98182.56;;;20.88;86.16
65754;BME280;52488;47.502;18.940;2022-08-25T05:33:06;98188.94;;;20.93;85.91
65754;BME280;52488;47.502;18.940;2022-08-25T05:34:09;98180.78;;;20.99;86.01
65754;BME280;52488;47.502;18.940;2022-08-25T05:35:13;98188.63;;;21.04;85.58
65754;BME280;52488;47.502;18.940;2022-08-25T05:36:21;98183.03;;;21.04;86.09
65754;BME280;52488;47.502;18.940;2022-08-25T05:37:24;98181.75;;;21.09;85.47
65754;BME280;52488;47.502;18.940;2022-08-25T05:38:27;98185.88;;;21.06;86.21
65754;BME280;52488;47.502;18.940;2022-08-25T05:39:30;98179.69;;;21.10;85.47
65754;BME280;52488;47.502;18.940;2022-08-25T05:40:35;98186.72;;;21.11;85.19
65754;BME280;52488;47.502;18.940;2022-08-25T05:41:38;98188.97;;;21.17;85.19